createdAt,value
2018-08-06T00:00:18.092Z,1.3
2018-08-06T00:02:17.845Z,1.4
2018-08-06T00:04:17.613Z,1.5
2018-08-06T00:06:18.268Z,1.2
2018-08-06T00:08:18.041Z,0.9
2018-08-06T00:10:18.265Z,1.6
2018-08-06T00:12:18.066Z,1.3
2018-08-06T00:14:17.843Z,1.3
2018-08-06T00:16:18.379Z,2.4
2018-08-06T00:18:18.225Z,2.3
2018-08-06T00:20:18.003Z,2.3
2018-08-06T00:22:17.802Z,2.8
2018-08-06T00:24:17.580Z,1.9
2018-08-06T00:26:17.650Z,2.9
2018-08-06T00:28:18.451Z,2.1
2018-08-06T00:30:18.284Z,1.6
2018-08-06T00:32:18.062Z,2
2018-08-06T00:34:17.874Z,1.4
2018-08-06T00:36:18.447Z,2.6
2018-08-06T00:38:18.245Z,2.4
2018-08-06T00:40:18.493Z,2.2
2018-08-06T00:42:18.280Z,2.3
2018-08-06T00:44:18.055Z,1.3
2018-08-06T00:46:17.629Z,2.2
2018-08-06T00:48:18.400Z,2
2018-08-06T00:50:18.250Z,1.5
2018-08-06T00:52:18.020Z,2
2018-08-06T00:54:17.816Z,2
2018-08-06T00:56:18.383Z,1.5
2018-08-06T00:58:18.162Z,1.7
2018-08-06T01:00:17.986Z,1.3
2018-08-06T01:02:17.773Z,2
2018-08-06T01:04:17.537Z,1.2
2018-08-06T01:06:17.600Z,1.2
2018-08-06T01:08:18.413Z,1.2
2018-08-06T01:10:17.698Z,1.2
2018-08-06T01:12:18.484Z,1.6
2018-08-06T01:14:18.301Z,1.3
2018-08-06T01:16:18.106Z,1.1
2018-08-06T01:18:17.972Z,1.4
2018-08-06T01:20:17.764Z,1.2
2018-08-06T01:22:17.530Z,1.5
2018-08-06T01:24:18.302Z,1.5
2018-08-06T01:26:17.997Z,1.8
2018-08-06T01:28:17.789Z,1.7
2018-08-06T01:30:17.568Z,1.3
2018-08-06T01:32:18.345Z,1.5
2018-08-06T01:34:18.160Z,1.7
2018-08-06T01:36:18.254Z,1.1
2018-08-06T01:38:18.058Z,1.7
2018-08-06T01:40:18.316Z,1.2
2018-08-06T01:42:18.082Z,1.3
2018-08-06T01:44:17.871Z,1.4
2018-08-06T01:46:17.896Z,1.4
2018-08-06T01:48:17.706Z,1.5
2018-08-06T01:50:18.476Z,1.3
2018-08-06T01:52:18.229Z,1.1
2018-08-06T01:54:18.034Z,1.2
2018-08-06T01:56:17.714Z,1.1
2018-08-06T01:58:18.534Z,1
2018-08-06T02:00:18.275Z,1.1
2018-08-06T02:02:18.032Z,1.3
2018-08-06T02:04:17.836Z,0.8
2018-08-06T02:06:18.521Z,1.4
2018-08-06T02:08:18.296Z,0.8
2018-08-06T02:10:17.567Z,0.9
2018-08-06T02:12:18.329Z,0.9
2018-08-06T02:14:18.122Z,1.5
2018-08-06T02:16:17.638Z,0.9
2018-08-06T02:18:18.539Z,0.9
2018-08-06T02:20:18.347Z,1.2
2018-08-06T02:22:18.147Z,0.9
2018-08-06T02:24:17.944Z,1.5
2018-08-06T02:26:18.410Z,0.9
2018-08-06T02:28:18.201Z,0.7
2018-08-06T02:30:17.995Z,0.7
2018-08-06T02:32:17.776Z,1
2018-08-06T02:34:17.583Z,0.9
2018-08-06T02:36:17.672Z,0.9
2018-08-06T02:38:18.467Z,0.8
2018-08-06T02:40:17.712Z,1.2
2018-08-06T02:42:18.517Z,0.6
2018-08-06T02:44:18.297Z,0.9
2018-08-06T02:46:17.870Z,0.6
2018-08-06T02:48:17.668Z,0.8
2018-08-06T02:50:18.477Z,1
2018-08-06T02:52:18.288Z,0.6
2018-08-06T02:54:18.092Z,0.8
2018-08-06T02:56:17.616Z,0.9
2018-08-06T02:58:18.415Z,0.6
2018-08-06T03:00:18.300Z,0.8
2018-08-06T03:02:18.287Z,0.6
2018-08-06T03:04:18.057Z,0.7
2018-08-06T03:06:17.566Z,1.2
2018-08-06T03:08:18.376Z,0.5
2018-08-06T03:10:17.623Z,0.7
2018-08-06T03:12:18.392Z,0.7
2018-08-06T03:14:18.167Z,0.8
2018-08-06T03:16:18.250Z,0.5
2018-08-06T03:18:18.110Z,0.9
2018-08-06T03:20:17.909Z,0.7
2018-08-06T03:22:17.699Z,0.8
2018-08-06T03:24:18.502Z,1.1
2018-08-06T03:26:17.550Z,0.7
2018-08-06T03:28:18.344Z,0.7
2018-08-06T03:30:18.117Z,0.9
2018-08-06T03:32:17.910Z,0.7
2018-08-06T03:34:17.673Z,0.7
2018-08-06T03:36:17.756Z,0.7
2018-08-06T03:38:17.579Z,0.5
2018-08-06T03:40:17.912Z,0.9
2018-08-06T03:42:17.934Z,0.7
2018-08-06T03:44:17.735Z,0.8
2018-08-06T03:46:17.884Z,1
2018-08-06T03:48:17.667Z,1.1
2018-08-06T03:50:18.449Z,0.8
2018-08-06T03:52:18.193Z,0.7
2018-08-06T03:54:17.964Z,1.1
2018-08-06T03:56:17.990Z,1
2018-08-06T03:58:17.771Z,0.8
2018-08-06T04:00:17.541Z,0.8
2018-08-06T04:02:18.328Z,1.3
2018-08-06T04:04:18.114Z,0.9
2018-08-06T04:06:18.165Z,0.9
2018-08-06T04:08:17.973Z,0.8
2018-08-06T04:10:18.234Z,1
2018-08-06T04:12:18.052Z,0.9
2018-08-06T04:14:17.818Z,1
2018-08-06T04:16:18.335Z,1
2018-08-06T04:18:18.236Z,1.6
2018-08-06T04:20:18.049Z,0.9
2018-08-06T04:22:17.828Z,0.8
2018-08-06T04:24:17.635Z,1.4
2018-08-06T04:26:18.270Z,1
2018-08-06T04:28:18.046Z,1
2018-08-06T04:30:17.995Z,0.9
2018-08-06T04:32:17.744Z,0.7
2018-08-06T04:34:18.534Z,0.7
2018-08-06T04:36:18.429Z,0.9
2018-08-06T04:38:18.208Z,0.7
2018-08-06T04:40:19.459Z,1.1
2018-08-06T04:42:18.213Z,0.7
2018-08-06T04:44:18.009Z,1
2018-08-06T04:46:18.111Z,0.6
2018-08-06T04:48:17.873Z,0.6
2018-08-06T04:50:17.685Z,0.6
2018-08-06T04:52:18.460Z,0.7
2018-08-06T04:54:18.235Z,0.4
2018-08-06T04:56:18.334Z,0.6
2018-08-06T04:58:18.101Z,0.7
2018-08-06T05:00:17.867Z,0.6
2018-08-06T05:02:17.650Z,0.4
2018-08-06T05:04:18.452Z,0.8
2018-08-06T05:06:18.967Z,0.8
2018-08-06T05:08:17.749Z,0.7
2018-08-06T05:10:19.024Z,0.5
2018-08-06T05:12:17.845Z,0.6
2018-08-06T05:14:17.642Z,0.9
2018-08-06T05:16:17.752Z,0.8
2018-08-06T05:18:17.600Z,0.5
2018-08-06T05:20:18.381Z,0.6
2018-08-06T05:22:18.162Z,0.8
2018-08-06T05:24:17.973Z,0.9
2018-08-06T05:26:18.515Z,0.8
2018-08-06T05:28:18.314Z,0.6
2018-08-06T05:30:18.089Z,0.9
2018-08-06T05:32:18.880Z,0.6
2018-08-06T05:34:17.662Z,0.7
2018-08-06T05:36:17.712Z,0.6
2018-08-06T05:38:18.494Z,0.6
2018-08-06T05:40:17.757Z,1.1
2018-08-06T05:42:17.550Z,0.8
2018-08-06T05:44:18.336Z,1
2018-08-06T05:46:17.841Z,0.6
2018-08-06T05:48:17.739Z,1.4
2018-08-06T05:50:17.678Z,0.8
2018-08-06T05:52:18.452Z,0.5
2018-08-06T05:54:18.262Z,0.8
2018-08-06T05:56:17.759Z,0.8
2018-08-06T05:58:17.610Z,0.8
2018-08-06T06:00:18.534Z,1.1
2018-08-06T06:02:18.321Z,1.4
2018-08-06T06:04:18.112Z,0.9
2018-08-06T06:06:17.836Z,0.6
2018-08-06T06:08:17.601Z,0.7
2018-08-06T06:10:17.896Z,0.8
2018-08-06T06:12:17.683Z,1
2018-08-06T06:14:18.461Z,0.8
2018-08-06T06:16:17.545Z,0.8
2018-08-06T06:18:18.404Z,1
2018-08-06T06:20:18.189Z,0.5
2018-08-06T06:22:17.983Z,0.5
2018-08-06T06:24:17.754Z,1.2
2018-08-06T06:26:18.112Z,0.6
2018-08-06T06:28:17.904Z,0.7
2018-08-06T06:30:17.761Z,0.6
2018-08-06T06:32:18.559Z,0.7
2018-08-06T06:34:18.370Z,0.8
2018-08-06T06:36:17.904Z,1
2018-08-06T06:38:17.673Z,0.9
2018-08-06T06:40:17.948Z,0.6
2018-08-06T06:42:17.717Z,1.1
2018-08-06T06:44:18.479Z,0.6
2018-08-06T06:46:17.639Z,0.7
2018-08-06T06:48:18.425Z,0.4
2018-08-06T06:50:18.272Z,0.6
2018-08-06T06:52:18.084Z,0.8
2018-08-06T06:54:17.878Z,0.5
2018-08-06T06:56:18.514Z,0.6
2018-08-06T06:58:18.308Z,0.7
2018-08-06T07:00:18.164Z,0.5
2018-08-06T07:02:17.979Z,0.7
2018-08-06T07:04:17.764Z,0.5
2018-08-06T07:06:18.345Z,0.5
2018-08-06T07:08:18.261Z,0.3
2018-08-06T07:10:17.689Z,0.6
2018-08-06T07:12:18.449Z,0.7
2018-08-06T07:14:18.247Z,0.4
2018-08-06T07:16:17.826Z,0.9
2018-08-06T07:18:17.699Z,0.6
2018-08-06T07:20:18.532Z,0.4
2018-08-06T07:22:18.417Z,0.6
2018-08-06T07:24:18.231Z,0.7
2018-08-06T07:26:18.271Z,0.6
2018-08-06T07:28:18.063Z,0.6
2018-08-06T07:30:17.851Z,0.5
2018-08-06T07:32:17.647Z,0.5
2018-08-06T07:34:18.429Z,0.6
2018-08-06T07:36:17.989Z,0.5
2018-08-06T07:38:17.769Z,0.5
2018-08-06T07:40:18.060Z,0.3
2018-08-06T07:42:17.853Z,0.6
2018-08-06T07:44:17.659Z,0.7
2018-08-06T07:46:18.240Z,0.3
2018-08-06T07:48:18.035Z,0.5
2018-08-06T07:50:17.804Z,0.6
2018-08-06T07:52:17.589Z,0.5
2018-08-06T07:54:18.400Z,0.8
2018-08-06T07:56:17.886Z,0.4
2018-08-06T07:58:17.632Z,0.3
2018-08-06T08:00:18.422Z,0.2
2018-08-06T08:02:18.204Z,0.4
2018-08-06T08:04:18.018Z,0.4
2018-08-06T08:06:17.638Z,0.2
2018-08-06T08:08:18.447Z,0.6
2018-08-06T08:10:17.748Z,0.4
2018-08-06T08:12:17.555Z,0.9
2018-08-06T08:14:18.301Z,0.3
2018-08-06T08:16:17.804Z,0.3
2018-08-06T08:18:17.673Z,0.3
2018-08-06T08:20:18.826Z,0.5
2018-08-06T08:22:18.233Z,0.4
2018-08-06T08:24:18.019Z,0.3
2018-08-06T08:26:18.519Z,0.4
2018-08-06T08:28:18.284Z,0.8
2018-08-06T08:30:18.058Z,0.4
2018-08-06T08:32:17.850Z,0.4
2018-08-06T08:34:17.602Z,0.7
2018-08-06T08:36:17.754Z,0.4
2018-08-06T08:38:17.559Z,0.4
2018-08-06T08:40:17.820Z,0.4
2018-08-06T08:42:17.580Z,0.5
2018-08-06T08:44:18.368Z,0.3
2018-08-06T08:46:18.423Z,0.3
2018-08-06T08:48:18.187Z,0.4
2018-08-06T08:50:18.125Z,0.8
2018-08-06T08:52:17.954Z,0.6
2018-08-06T08:54:17.827Z,0.4
2018-08-06T08:56:17.924Z,0.2
2018-08-06T08:58:17.715Z,0.4
2018-08-06T09:00:18.513Z,0.4
2018-08-06T09:02:18.299Z,0.4
2018-08-06T09:04:18.085Z,0.6
2018-08-06T09:06:17.589Z,0.6
2018-08-06T09:08:18.387Z,0.8
2018-08-06T09:10:17.637Z,0.3
2018-08-06T09:12:18.423Z,0.7
2018-08-06T09:14:18.241Z,1.6
2018-08-06T09:16:18.313Z,0.4
2018-08-06T09:18:18.188Z,0.5
2018-08-06T09:20:17.987Z,0.3
2018-08-06T09:22:17.757Z,0.2
2018-08-06T09:24:17.563Z,0.4
2018-08-06T09:26:18.120Z,0.3
2018-08-06T09:28:17.914Z,0.6
2018-08-06T09:30:17.682Z,0.7
2018-08-06T09:32:18.458Z,0.4
2018-08-06T09:34:18.249Z,0.5
2018-08-06T09:36:17.819Z,0.5
2018-08-06T09:38:17.599Z,0.6
2018-08-06T09:40:17.959Z,0.5
2018-08-06T09:42:17.856Z,0.3
2018-08-06T09:44:17.643Z,0.6
2018-08-06T09:46:18.151Z,0.6
2018-08-06T09:48:17.987Z,0.4
2018-08-06T09:50:17.779Z,0.7
2018-08-06T09:52:17.553Z,0.4
2018-08-06T09:54:18.358Z,0.5
2018-08-06T09:56:17.849Z,0.4
2018-08-06T09:58:17.642Z,0.4
2018-08-06T10:00:18.436Z,0.4
2018-08-06T10:02:18.221Z,0.5
2018-08-06T10:04:18.021Z,0.6
2018-08-06T10:06:17.628Z,0.4
2018-08-06T10:08:17.703Z,0.3
2018-08-06T10:10:17.966Z,0.5
2018-08-06T10:12:17.757Z,0.4
2018-08-06T10:14:17.573Z,0.5
2018-08-06T10:16:18.110Z,0.5
2018-08-06T10:18:17.972Z,0.3
2018-08-06T10:20:17.797Z,0.5
2018-08-06T10:22:17.572Z,0.6
2018-08-06T10:24:18.366Z,0.4
2018-08-06T10:26:18.427Z,0.6
2018-08-06T10:28:18.230Z,0.5
2018-08-06T10:30:18.228Z,0.3
2018-08-06T10:32:18.179Z,0.3
2018-08-06T10:34:17.966Z,0.5
2018-08-06T10:36:18.530Z,0.6
2018-08-06T10:38:18.332Z,0.5
2018-08-06T10:40:17.604Z,0.3
2018-08-06T10:42:18.546Z,0.4
2018-08-06T10:44:18.370Z,0.5
2018-08-06T10:46:17.996Z,0.4
2018-08-06T10:48:17.881Z,0.5
2018-08-06T10:50:17.826Z,0.4
2018-08-06T10:52:17.622Z,0.8
2018-08-06T10:54:18.409Z,0.6
2018-08-06T10:56:18.441Z,0.4
2018-08-06T10:58:18.255Z,0.5
2018-08-06T11:00:18.046Z,1
2018-08-06T11:02:17.856Z,0.4
2018-08-06T11:04:17.674Z,0.5
2018-08-06T11:06:17.848Z,0.3
2018-08-06T11:08:17.619Z,0.4
2018-08-06T11:10:17.918Z,0.5
2018-08-06T11:12:17.687Z,0.7
2018-08-06T11:14:18.552Z,0.4
2018-08-06T11:16:17.657Z,0.3
2018-08-06T11:18:18.545Z,0.4
2018-08-06T11:20:18.355Z,0.3
2018-08-06T11:22:18.200Z,0.3
2018-08-06T11:24:17.982Z,0.5
2018-08-06T11:26:18.465Z,0.6
2018-08-06T11:28:18.285Z,0.3
2018-08-06T11:30:18.137Z,0.3
2018-08-06T11:32:17.956Z,0.3
2018-08-06T11:34:17.750Z,0.2
2018-08-06T11:36:17.818Z,0.4
2018-08-06T11:38:17.654Z,0.4
2018-08-06T11:40:17.909Z,0.4
2018-08-06T11:42:17.700Z,0.3
2018-08-06T11:44:18.531Z,0.3
2018-08-06T11:46:18.107Z,0.3
2018-08-06T11:48:17.919Z,0.3
2018-08-06T11:50:17.716Z,0.3
2018-08-06T11:52:18.524Z,0.3
2018-08-06T11:54:18.304Z,0.4
2018-08-06T11:56:17.879Z,0.8
2018-08-06T11:58:17.702Z,0.3
2018-08-06T12:00:18.527Z,0.5
2018-08-06T12:02:18.308Z,0.4
2018-08-06T12:04:18.091Z,0.3
2018-08-06T12:06:17.746Z,0.4
2018-08-06T12:08:18.530Z,0.4
2018-08-06T12:10:17.824Z,0.3
2018-08-06T12:12:17.612Z,0.3
2018-08-06T12:14:18.419Z,0.4
2018-08-06T12:16:17.786Z,0.4
2018-08-06T12:18:17.697Z,0.3
2018-08-06T12:20:18.727Z,0.5
2018-08-06T12:22:17.793Z,0.5
2018-08-06T12:24:17.579Z,0.3
2018-08-06T12:26:18.284Z,0.4
2018-08-06T12:28:18.091Z,0.2
2018-08-06T12:30:17.901Z,0.2
2018-08-06T12:32:17.723Z,0.2
2018-08-06T12:34:18.545Z,0.5
2018-08-06T12:36:18.126Z,0.2
2018-08-06T12:38:18.056Z,0.3
2018-08-06T12:40:17.573Z,0.2
2018-08-06T12:42:18.369Z,0.1
2018-08-06T12:44:18.151Z,0.4
2018-08-06T12:46:17.716Z,0.1
2018-08-06T12:48:17.820Z,0.3
2018-08-06T12:50:17.611Z,0.2
2018-08-06T12:52:18.433Z,1
2018-08-06T12:54:18.310Z,0.2
2018-08-06T12:56:18.347Z,0.2
2018-08-06T12:58:18.138Z,0.1
2018-08-06T13:00:17.937Z,0.2
2018-08-06T13:02:17.732Z,0.3
2018-08-06T13:04:17.550Z,0.3
2018-08-06T13:06:18.227Z,0.2
2018-08-06T13:08:18.192Z,0.1
2018-08-06T13:10:18.487Z,0.2
2018-08-06T13:12:18.301Z,0.4
2018-08-06T13:14:18.122Z,0.3
2018-08-06T13:16:17.886Z,0.2
2018-08-06T13:18:17.760Z,0.1
2018-08-06T13:20:17.554Z,0.7
2018-08-06T13:22:18.415Z,0.2
2018-08-06T13:24:18.252Z,0.3
2018-08-06T13:26:17.806Z,0.1
2018-08-06T13:28:17.657Z,0.2
2018-08-06T13:30:18.458Z,0.3
2018-08-06T13:32:18.270Z,0.2
2018-08-06T13:34:18.076Z,0.4
2018-08-06T13:36:17.613Z,0.2
2018-08-06T13:38:18.434Z,0.1
2018-08-06T13:40:17.760Z,0.3
2018-08-06T13:42:17.613Z,0.4
2018-08-06T13:44:18.453Z,0.1
2018-08-06T13:46:18.256Z,0.3
2018-08-06T13:48:18.115Z,0.3
2018-08-06T13:50:17.935Z,0.2
2018-08-06T13:52:17.764Z,0.3
2018-08-06T13:54:17.625Z,0.3
2018-08-06T13:56:17.572Z,0.3
2018-08-06T13:58:18.417Z,0.3
2018-08-06T14:00:18.279Z,0.3
2018-08-06T14:02:18.153Z,0.3
2018-08-06T14:04:17.987Z,0.4
2018-08-06T14:06:18.117Z,0.3
2018-08-06T14:08:17.953Z,0.2
2018-08-06T14:10:18.405Z,0.3
2018-08-06T14:12:18.259Z,0.3
2018-08-06T14:14:18.121Z,0.4
2018-08-06T14:16:17.738Z,0.4
2018-08-06T14:18:17.650Z,0.4
2018-08-06T14:20:18.535Z,0.4
2018-08-06T14:22:18.408Z,0.4
2018-08-06T14:24:18.296Z,0.4
2018-08-06T14:26:18.115Z,0.6
2018-08-06T14:28:18.007Z,0.4
2018-08-06T14:30:17.929Z,0.4
2018-08-06T14:32:17.788Z,0.4
2018-08-06T14:34:17.750Z,0.5
2018-08-06T14:36:17.624Z,0.3
2018-08-06T14:38:18.611Z,0.4
2018-08-06T14:40:17.983Z,0.5
2018-08-06T14:42:17.918Z,0.3
2018-08-06T14:44:17.871Z,0.4
2018-08-06T14:46:18.641Z,0.4
2018-08-06T14:48:18.639Z,0.6
2018-08-06T14:50:18.545Z,0.4
2018-08-06T14:52:18.453Z,0.5
2018-08-06T14:54:18.339Z,0.4
2018-08-06T14:56:18.252Z,0.4
2018-08-06T14:58:18.291Z,0.4
2018-08-06T15:00:18.158Z,0.3
2018-08-06T15:02:18.106Z,0.3
2018-08-06T15:04:18.014Z,0.5
2018-08-06T15:06:18.591Z,0.3
2018-08-06T15:08:18.480Z,0.3
2018-08-06T15:10:17.843Z,0.2
2018-08-06T15:12:17.696Z,0.4
2018-08-06T15:14:18.571Z,0.2
2018-08-06T15:16:18.201Z,0.4
2018-08-06T15:18:18.146Z,0.4
2018-08-06T15:20:17.986Z,0.2
2018-08-06T15:22:17.859Z,0.4
2018-08-06T15:24:17.704Z,0.3
2018-08-06T15:26:17.908Z,0.3
2018-08-06T15:28:17.775Z,0.2
2018-08-06T15:30:17.643Z,0.4
2018-08-06T15:32:18.515Z,0.2
2018-08-06T15:34:18.348Z,0.2
2018-08-06T15:36:17.903Z,0.5
2018-08-06T15:38:17.722Z,0.4
2018-08-06T15:40:18.019Z,0.4
2018-08-06T15:42:17.909Z,0.6
2018-08-06T15:44:17.752Z,0.2
2018-08-06T15:46:18.424Z,0.3
2018-08-06T15:48:18.279Z,0.4
2018-08-06T15:50:18.109Z,0.5
2018-08-06T15:52:17.944Z,0.3
2018-08-06T15:54:17.788Z,0.6
2018-08-06T15:56:18.334Z,0.3
2018-08-06T15:58:18.172Z,0.3
2018-08-06T16:00:18.009Z,0.4
2018-08-06T16:02:17.879Z,0.3
2018-08-06T16:04:17.716Z,0.2
2018-08-06T16:06:18.390Z,0.5
2018-08-06T16:08:18.201Z,0.3
2018-08-06T16:10:18.560Z,0.6
2018-08-06T16:12:18.405Z,0.3
2018-08-06T16:14:18.235Z,0.4
2018-08-06T16:16:17.841Z,0.4
2018-08-06T16:18:17.937Z,0.2
2018-08-06T16:20:18.016Z,0.3
2018-08-06T16:22:17.887Z,0.5
2018-08-06T16:24:17.715Z,0.3
2018-08-06T16:26:17.611Z,0.3
2018-08-06T16:28:18.478Z,0.5
2018-08-06T16:30:18.307Z,0.3
2018-08-06T16:32:18.117Z,0.3
2018-08-06T16:34:17.986Z,0.7
2018-08-06T16:36:18.522Z,0.5
2018-08-06T16:38:18.351Z,0.3
2018-08-06T16:40:17.681Z,0.3
2018-08-06T16:42:18.512Z,0.3
2018-08-06T16:44:18.332Z,0.4
2018-08-06T16:46:17.967Z,0.2
2018-08-06T16:48:17.803Z,0.5
2018-08-06T16:50:17.841Z,0.7
2018-08-06T16:52:17.718Z,0.3
2018-08-06T16:54:17.625Z,0.3
2018-08-06T16:56:18.178Z,0.4
2018-08-06T16:58:18.053Z,0.2
2018-08-06T17:00:17.903Z,0.3
2018-08-06T17:02:17.769Z,0.6
2018-08-06T17:04:17.588Z,0.3
2018-08-06T17:06:18.254Z,0.3
2018-08-06T17:08:18.111Z,0.6
2018-08-06T17:10:18.373Z,0.7
2018-08-06T17:12:18.212Z,0.5
2018-08-06T17:14:18.068Z,1
2018-08-06T17:16:18.189Z,0.6
2018-08-06T17:18:18.104Z,0.4
2018-08-06T17:20:17.950Z,0.3
2018-08-06T17:22:17.791Z,0.4
2018-08-06T17:24:17.845Z,0.3
2018-08-06T17:26:18.376Z,0.3
2018-08-06T17:28:18.199Z,0.4
2018-08-06T17:30:18.094Z,0.5
2018-08-06T17:32:17.931Z,0.8
2018-08-06T17:34:17.747Z,0.5
2018-08-06T17:36:18.365Z,0.4
2018-08-06T17:38:18.222Z,0.4
2018-08-06T17:40:18.580Z,0.5
2018-08-06T17:42:18.406Z,0.6
2018-08-06T17:44:18.208Z,0.5
2018-08-06T17:46:17.817Z,0.3
2018-08-06T17:48:17.625Z,0.4
2018-08-06T17:50:18.488Z,0.3
2018-08-06T17:52:17.618Z,0.4
2018-08-06T17:54:18.431Z,0.4
2018-08-06T17:56:17.974Z,0.7
2018-08-06T17:58:17.802Z,0.3
2018-08-06T18:00:17.585Z,0.5
2018-08-06T18:02:18.406Z,0.6
2018-08-06T18:04:18.244Z,0.3
2018-08-06T18:06:17.783Z,0.4
2018-08-06T18:08:17.634Z,0.3
2018-08-06T18:10:18.074Z,0.4
2018-08-06T18:12:17.892Z,0.5
2018-08-06T18:14:17.702Z,0.3
2018-08-06T18:16:17.764Z,0.3
2018-08-06T18:18:17.654Z,0.4
2018-08-06T18:20:18.584Z,0.5
2018-08-06T18:22:18.376Z,0.6
2018-08-06T18:24:18.232Z,0.8
2018-08-06T18:26:17.821Z,0.9
2018-08-06T18:28:17.617Z,0.7
2018-08-06T18:30:18.505Z,0.5
2018-08-06T18:32:18.340Z,0.5
2018-08-06T18:34:18.113Z,0.9
2018-08-06T18:36:17.712Z,0.7
2018-08-06T18:38:18.557Z,2.4
2018-08-06T18:40:17.847Z,1.6
2018-08-06T18:42:17.661Z,1.5
2018-08-06T18:44:18.485Z,2.3
2018-08-06T18:46:18.046Z,1.2
2018-08-06T18:48:17.884Z,1.2
2018-08-06T18:50:17.692Z,0.5
2018-08-06T18:52:18.517Z,0.9
2018-08-06T18:54:18.340Z,0.8
2018-08-06T18:56:18.435Z,0.7
2018-08-06T18:58:18.244Z,0.8
2018-08-06T19:00:18.089Z,0.5
2018-08-06T19:02:17.866Z,0.6
2018-08-06T19:04:17.669Z,0.3
2018-08-06T19:06:18.232Z,0.4
2018-08-06T19:08:18.031Z,0.4
2018-08-06T19:10:18.294Z,0.5
2018-08-06T19:12:18.130Z,0.5
2018-08-06T19:14:17.909Z,0.4
2018-08-06T19:16:18.481Z,0.6
2018-08-06T19:18:18.371Z,1
2018-08-06T19:20:18.165Z,0.6
2018-08-06T19:22:17.999Z,0.7
2018-08-06T19:24:17.805Z,0.8
2018-08-06T19:26:18.399Z,0.6
2018-08-06T19:28:18.254Z,0.7
2018-08-06T19:30:18.056Z,0.7
2018-08-06T19:32:17.876Z,0.8
2018-08-06T19:34:17.659Z,0.7
2018-08-06T19:36:17.706Z,0.9
2018-08-06T19:38:18.543Z,0.8
2018-08-06T19:40:17.840Z,0.7
2018-08-06T19:42:17.646Z,0.9
2018-08-06T19:44:18.471Z,0.6
2018-08-06T19:46:18.005Z,0.6
2018-08-06T19:48:17.790Z,0.6
2018-08-06T19:50:17.633Z,0.9
2018-08-06T19:52:18.450Z,0.7
2018-08-06T19:54:18.253Z,0.9
2018-08-06T19:56:17.806Z,0.7
2018-08-06T19:58:17.613Z,0.8
2018-08-06T20:00:18.491Z,0.6
2018-08-06T20:02:18.337Z,0.8
2018-08-06T20:04:18.298Z,1
2018-08-06T20:06:17.828Z,1.2
2018-08-06T20:08:17.619Z,1.1
2018-08-06T20:10:17.873Z,0.9
2018-08-06T20:12:17.684Z,0.7
2018-08-06T20:14:18.477Z,0.8
2018-08-06T20:16:18.037Z,0.7
2018-08-06T20:18:17.910Z,0.8
2018-08-06T20:20:17.683Z,1
2018-08-06T20:22:18.351Z,0.7
2018-08-06T20:24:18.180Z,0.8
2018-08-06T20:26:17.741Z,0.9
2018-08-06T20:28:18.525Z,1.4
2018-08-06T20:30:18.330Z,1
2018-08-06T20:32:18.148Z,1.7
2018-08-06T20:34:17.939Z,1.9
2018-08-06T20:36:18.526Z,1.4
2018-08-06T20:38:18.328Z,1.3
2018-08-06T20:40:17.632Z,1.3
2018-08-06T20:42:18.494Z,1.4
2018-08-06T20:44:18.338Z,1.1
2018-08-06T20:46:18.383Z,1.4
2018-08-06T20:48:18.211Z,1.1
2018-08-06T20:50:18.006Z,1.1
2018-08-06T20:52:17.805Z,0.9
2018-08-06T20:54:17.607Z,1.6
2018-08-06T20:56:17.615Z,1.3
2018-08-06T20:58:18.383Z,0.9
2018-08-06T21:00:18.167Z,1
2018-08-06T21:02:17.987Z,1.3
2018-08-06T21:04:18.020Z,1.5
2018-08-06T21:06:18.104Z,1.4
2018-08-06T21:08:17.915Z,1.2
2018-08-06T21:10:18.265Z,1.1
2018-08-06T21:12:18.354Z,1
2018-08-06T21:14:18.136Z,1.1
2018-08-06T21:16:17.677Z,0.7
2018-08-06T21:18:17.588Z,0.7
2018-08-06T21:20:18.374Z,0.8
2018-08-06T21:22:18.173Z,0.8
2018-08-06T21:24:18.012Z,0.8
2018-08-06T21:26:18.100Z,1.1
2018-08-06T21:28:17.885Z,1.1
2018-08-06T21:30:17.646Z,1.4
2018-08-06T21:32:18.472Z,0.7
2018-08-06T21:34:18.278Z,0.9
2018-08-06T21:36:18.360Z,1.2
2018-08-06T21:38:18.138Z,1.2
2018-08-06T21:40:18.363Z,1.4
2018-08-06T21:42:18.128Z,1.3
2018-08-06T21:44:17.898Z,1.4
2018-08-06T21:46:18.075Z,1
2018-08-06T21:48:17.838Z,0.7
2018-08-06T21:50:17.683Z,1.1
2018-08-06T21:52:18.535Z,0.9
2018-08-06T21:54:18.321Z,1.1
2018-08-06T21:56:17.935Z,1.5
2018-08-06T21:58:17.730Z,1.2
2018-08-06T22:00:18.562Z,0.9
2018-08-06T22:02:18.382Z,1.3
2018-08-06T22:04:18.198Z,1.4
2018-08-06T22:06:17.727Z,1.6
2018-08-06T22:08:18.556Z,1.3
2018-08-06T22:10:17.835Z,1.3
2018-08-06T22:12:17.678Z,1.1
2018-08-06T22:14:18.459Z,1.3
2018-08-06T22:16:17.990Z,0.7
2018-08-06T22:18:17.915Z,1.3
2018-08-06T22:20:17.826Z,1
2018-08-06T22:22:17.619Z,0.9
2018-08-06T22:24:18.442Z,1.1
2018-08-06T22:26:17.998Z,1
2018-08-06T22:28:17.799Z,2.3
2018-08-06T22:30:17.563Z,1.3
2018-08-06T22:32:18.346Z,1.3
2018-08-06T22:34:18.146Z,1
2018-08-06T22:36:17.646Z,0.8
2018-08-06T22:38:18.419Z,1.4
2018-08-06T22:40:17.682Z,0.9
2018-08-06T22:42:17.779Z,0.8
2018-08-06T22:44:17.566Z,1
2018-08-06T22:46:18.123Z,0.9
2018-08-06T22:48:17.934Z,1
2018-08-06T22:50:17.742Z,1
2018-08-06T22:52:18.547Z,0.9
2018-08-06T22:54:18.317Z,0.8
2018-08-06T22:56:18.351Z,1.1
2018-08-06T22:58:18.155Z,0.7
2018-08-06T23:00:18.062Z,0.7
2018-08-06T23:02:18.039Z,1
2018-08-06T23:04:17.864Z,0.9
2018-08-06T23:06:17.964Z,0.8
2018-08-06T23:08:17.730Z,0.6
2018-08-06T23:10:17.979Z,0.9
2018-08-06T23:12:17.777Z,0.6
2018-08-06T23:14:17.567Z,0.9
2018-08-06T23:16:18.143Z,0.9
2018-08-06T23:18:18.001Z,0.5
2018-08-06T23:20:17.850Z,0.9
2018-08-06T23:22:17.616Z,0.9
2018-08-06T23:24:18.374Z,0.7
2018-08-06T23:26:17.937Z,0.7
2018-08-06T23:28:17.720Z,0.7
2018-08-06T23:30:18.541Z,0.6
2018-08-06T23:32:18.312Z,0.9
2018-08-06T23:34:18.090Z,0.7
2018-08-06T23:36:17.654Z,0.5
2018-08-06T23:38:18.419Z,0.5
2018-08-06T23:40:17.671Z,0.8
2018-08-06T23:42:18.479Z,0.7
2018-08-06T23:44:18.248Z,0.6
2018-08-06T23:46:18.275Z,0.6
2018-08-06T23:48:18.059Z,0.9
2018-08-06T23:50:17.856Z,1.1
2018-08-06T23:52:17.662Z,1
2018-08-06T23:54:18.415Z,0.8
2018-08-06T23:56:18.456Z,0.8
2018-08-06T23:58:18.257Z,0.6
